Airfield :
LOGIN :

Register | Disclaimer

   EN    FR    IT 

 










Legend :    VFR   Marginal VFR   IFR   Intensive IFR   Very Intensive IFR
Visi :
Ceiling :
>= 8 km
>= 3000ft
5 to 8 km
1000 to 3000 ft
1500m to 5 km
500 to 1000 ft
800 to 1500m
200 to 500 ft
< 800m
< 200 ft
Symbols :   Thunderstorms  Fog  Heavy snow  Heavy precipitations  Wind > 20 kt
SIGMETs :     Misc.  Thunderstorms  Icing  Turbulence  Mountain Waves  Volcanic Ashes






- Airport Elevation : 17 ft
- IATA code : CPH


EKCH - København - Kastrup (Copenhagen)

CURRENT METAR :
  • 061850Z 19006KT 170V230 9999 BKN004 M01/M02 Q1042 TEMPO BKN005

EXPIRED METARs :
  • 061820Z 19005KT 150V230 9999 BKN004 M01/M02 Q1041 TEMPO BKN005
  • 061750Z 18003KT 9999 BKN004 M01/M02 Q1041 TEMPO BKN005
  • 061720Z 19004KT 150V210 8000 BKN005 M01/M02 Q1041 TEMPO BKN004
  • 061650Z 22002KT 8000 BKN005 M01/M02 Q1041 TEMPO BKN004
  • 061620Z 19002KT 8000 BKN006 M01/M02 Q1041 TEMPO BKN004

TAF TAF EKCH
Valid from the 06 at 18:00 until the 07 at 18:00 UTC


061710Z 0618/0718 35005KT 6000 BKN003
TEMPO 0618/0620 4000 BR SCT004
BECMG 0620/0622 25007KT 0300 FZFG VV001
TEMPO 0622/0702 3000 BR BKN005
BECMG 0702/0704 8000 NSW BKN008
TEMPO 0704/0707 BKN004



MET'MAP, your aeronautical weather chart ! - Copyright ORBIFLY December 2007 - Disclaimer

ORBIFLY MET'MAP TEAM :

Programming & Development : Alexandra Zaïnal
Original concept : Baudouin d'Aumeries
Technical & hardware support : Manuel Goepfert
Assistance : Marc-Olivier Méhu




SOURCES & CREDITS :

   NOAA